createdAt,value
2019-03-24T00:00:08.888Z,99038.91
2019-03-24T00:02:42.164Z,99033.22
2019-03-24T00:05:14.946Z,99042.41
2019-03-24T00:07:47.758Z,99039.04
2019-03-24T00:10:20.567Z,99034.33
2019-03-24T00:12:53.409Z,99036.56
2019-03-24T00:15:26.804Z,99039.44
2019-03-24T00:17:59.805Z,99041.89
2019-03-24T00:20:32.573Z,99044.97
2019-03-24T00:23:05.578Z,99044.05
2019-03-24T00:25:38.341Z,99041.94
2019-03-24T00:28:11.455Z,99043.73
2019-03-24T00:30:44.260Z,99049.45
2019-03-24T00:33:17.041Z,99054.42
2019-03-24T00:35:49.837Z,99054.00
2019-03-24T00:38:22.717Z,99057.00
2019-03-24T00:40:55.562Z,99062.07
2019-03-24T00:43:28.315Z,99066.66
2019-03-24T00:46:01.516Z,99074.73
2019-03-24T00:48:34.389Z,99078.22
2019-03-24T00:51:07.529Z,99076.36
2019-03-24T00:53:40.360Z,99073.88
2019-03-24T00:56:13.125Z,99081.47
2019-03-24T00:58:45.991Z,99089.32
2019-03-24T01:01:19.349Z,99089.78
2019-03-24T01:03:52.145Z,99090.95
2019-03-24T01:06:25.021Z,99100.12
2019-03-24T01:08:57.803Z,99100.69
2019-03-24T01:11:31.127Z,99099.73
2019-03-24T01:14:03.917Z,99099.91
2019-03-24T01:16:36.748Z,99101.73
2019-03-24T01:19:09.741Z,99099.91
2019-03-24T01:21:42.621Z,99099.31
2019-03-24T01:24:15.533Z,99101.00
2019-03-24T01:26:48.307Z,99097.94
2019-03-24T01:29:21.473Z,99104.43
2019-03-24T01:31:54.251Z,99113.77
2019-03-24T01:34:27.123Z,99097.29
2019-03-24T01:37:00.013Z,99101.96
2019-03-24T01:39:32.819Z,99097.94
2019-03-24T01:42:07.629Z,99104.63
2019-03-24T01:44:41.245Z,99105.58
2019-03-24T01:47:14.050Z,99106.11
2019-03-24T01:49:46.822Z,99112.36
2019-03-24T01:52:19.611Z,99115.59
2019-03-24T01:54:52.427Z,99108.72
2019-03-24T01:57:25.205Z,99102.43
2019-03-24T01:59:57.995Z,99107.03
2019-03-24T02:02:31.005Z,99109.05
2019-03-24T02:05:04.005Z,99110.27
2019-03-24T02:07:36.793Z,99117.09
2019-03-24T02:10:10.435Z,99121.64
2019-03-24T02:12:43.264Z,99116.20
2019-03-24T02:15:16.293Z,99118.42
2019-03-24T02:17:49.294Z,99129.77
2019-03-24T02:20:22.061Z,99123.64
2019-03-24T02:22:54.857Z,99124.75
2019-03-24T02:25:27.677Z,99134.88
2019-03-24T02:28:00.711Z,99130.50
2019-03-24T02:30:33.480Z,99140.31
2019-03-24T02:33:06.234Z,99143.88
2019-03-24T02:35:39.004Z,99147.72
2019-03-24T02:38:11.925Z,99148.91
2019-03-24T02:40:44.686Z,99152.02
2019-03-24T02:43:17.417Z,99149.75
2019-03-24T02:45:50.147Z,99151.20
2019-03-24T02:48:22.940Z,99147.01
2019-03-24T02:50:55.827Z,99149.88
2019-03-24T02:53:28.820Z,99148.70
2019-03-24T02:56:01.623Z,99151.81
2019-03-24T02:58:34.523Z,99161.28
2019-03-24T03:01:08.483Z,99163.95
2019-03-24T03:03:41.223Z,99162.35
2019-03-24T03:06:14.009Z,99153.66
2019-03-24T03:08:46.747Z,99159.42
2019-03-24T03:11:19.458Z,99161.66
2019-03-24T03:13:52.212Z,99161.27
2019-03-24T03:16:37.908Z,99169.14
2019-03-24T03:18:59.406Z,99174.41
2019-03-24T03:21:32.271Z,99172.27
2019-03-24T03:24:05.024Z,99171.41
2019-03-24T03:26:37.809Z,99171.05
2019-03-24T03:29:10.540Z,99176.31
2019-03-24T03:31:43.348Z,99184.38
2019-03-24T03:34:16.161Z,99182.17
2019-03-24T03:36:49.082Z,99190.63
2019-03-24T03:39:22.053Z,99188.52
2019-03-24T03:41:54.797Z,99182.47
2019-03-24T03:44:27.535Z,99184.67
2019-03-24T03:47:00.319Z,99183.79
2019-03-24T03:49:33.151Z,99182.53
2019-03-24T03:52:05.909Z,99182.16
2019-03-24T03:54:38.691Z,99185.73
2019-03-24T03:57:11.544Z,99188.42
2019-03-24T03:59:44.324Z,99194.20
2019-03-24T04:02:17.128Z,99193.37
2019-03-24T04:04:49.851Z,99182.38
2019-03-24T04:07:22.634Z,99189.84
2019-03-24T04:09:55.396Z,99188.05
2019-03-24T04:12:29.454Z,99191.19
2019-03-24T04:15:02.210Z,99189.88
2019-03-24T04:17:34.940Z,99198.20
2019-03-24T04:20:08.079Z,99201.19
2019-03-24T04:22:40.823Z,99208.54
2019-03-24T04:25:13.603Z,99208.14
2019-03-24T04:27:46.349Z,99198.92
2019-03-24T04:30:19.199Z,99208.19
2019-03-24T04:32:52.033Z,99204.86
2019-03-24T04:35:24.909Z,99210.06
2019-03-24T04:37:57.656Z,99203.48
2019-03-24T04:40:31.220Z,99211.88
2019-03-24T04:43:03.993Z,99212.34
2019-03-24T04:45:36.744Z,99214.16
2019-03-24T04:48:09.513Z,99214.66
2019-03-24T04:50:42.343Z,99222.06
2019-03-24T04:53:15.121Z,99222.98
2019-03-24T04:55:47.903Z,99221.61
2019-03-24T04:58:20.686Z,99228.19
2019-03-24T05:00:53.417Z,99228.90
2019-03-24T05:03:26.369Z,99228.36
2019-03-24T05:05:59.392Z,99234.84
2019-03-24T05:08:32.145Z,99232.10
2019-03-24T05:11:04.951Z,99231.42
2019-03-24T05:13:37.684Z,99228.70
2019-03-24T05:16:10.998Z,99224.88
2019-03-24T05:18:43.750Z,99221.28
2019-03-24T05:21:16.542Z,99221.64
2019-03-24T05:23:49.327Z,99229.03
2019-03-24T05:26:22.050Z,99221.74
2019-03-24T05:28:54.851Z,99221.89
2019-03-24T05:31:27.607Z,99218.75
2019-03-24T05:34:00.708Z,99220.04
2019-03-24T05:36:33.477Z,99222.38
2019-03-24T05:39:07.771Z,99223.20
2019-03-24T05:41:40.974Z,99229.25
2019-03-24T05:44:13.733Z,99229.17
2019-03-24T05:46:46.486Z,99223.00
2019-03-24T05:49:19.258Z,99223.08
2019-03-24T05:51:52.046Z,99227.53
2019-03-24T05:54:24.798Z,99232.92
2019-03-24T05:56:57.541Z,99243.07
2019-03-24T05:59:30.329Z,99243.44
2019-03-24T06:02:03.203Z,99244.59
2019-03-24T06:04:35.947Z,99236.33
2019-03-24T06:07:08.827Z,99241.69
2019-03-24T06:09:41.937Z,99237.95
2019-03-24T06:12:14.709Z,99236.95
2019-03-24T06:14:47.499Z,99241.19
2019-03-24T06:17:20.261Z,99239.98
2019-03-24T06:19:53.095Z,99240.11
2019-03-24T06:22:25.875Z,99246.03
2019-03-24T06:24:58.813Z,99246.36
2019-03-24T06:27:31.578Z,99243.37
2019-03-24T06:30:07.788Z,99237.03
2019-03-24T06:32:40.548Z,99241.02
2019-03-24T06:35:13.378Z,99240.15
2019-03-24T06:37:46.183Z,99241.37
2019-03-24T06:40:19.866Z,99246.37
2019-03-24T06:42:52.822Z,99243.61
2019-03-24T06:45:28.584Z,99240.42
2019-03-24T06:48:00.054Z,99240.67
2019-03-24T06:50:32.783Z,99227.81
2019-03-24T06:53:05.522Z,99234.07
2019-03-24T06:55:38.320Z,99220.19
2019-03-24T06:58:11.129Z,99220.06
2019-03-24T07:00:43.875Z,99220.33
2019-03-24T07:03:16.668Z,99217.92
2019-03-24T07:05:49.544Z,99219.17
2019-03-24T07:08:22.321Z,99205.83
2019-03-24T07:10:55.101Z,99207.08
2019-03-24T07:13:28.031Z,99204.59
2019-03-24T07:16:01.309Z,99194.77
2019-03-24T07:18:34.118Z,99201.59
2019-03-24T07:21:06.880Z,99200.43
2019-03-24T07:23:39.714Z,99203.68
2019-03-24T07:26:12.518Z,99198.39
2019-03-24T07:28:45.346Z,99192.95
2019-03-24T07:31:18.099Z,99201.00
2019-03-24T07:33:51.311Z,99192.97
2019-03-24T07:36:24.077Z,99193.44
2019-03-24T07:38:56.865Z,99187.20
2019-03-24T07:41:29.656Z,99197.60
2019-03-24T07:44:02.423Z,99189.37
2019-03-24T07:46:35.271Z,99188.52
2019-03-24T07:49:08.078Z,99183.20
2019-03-24T07:51:41.142Z,99181.97
2019-03-24T07:54:14.011Z,99171.48
2019-03-24T07:56:46.838Z,99161.25
2019-03-24T07:59:19.645Z,99167.33
2019-03-24T08:01:52.433Z,99159.02
2019-03-24T08:04:25.273Z,99151.80
2019-03-24T08:06:58.063Z,99157.95
2019-03-24T08:09:30.849Z,99151.09
2019-03-24T08:12:04.023Z,99145.17
2019-03-24T08:14:36.797Z,99141.80
2019-03-24T08:17:09.585Z,99136.09
2019-03-24T08:19:42.421Z,99128.08
2019-03-24T08:22:15.206Z,99120.30
2019-03-24T08:24:47.964Z,99119.19
2019-03-24T08:27:26.888Z,99109.72
2019-03-24T08:29:59.660Z,99110.64
2019-03-24T08:32:32.489Z,99105.98
2019-03-24T08:35:06.456Z,99093.75
2019-03-24T08:37:39.312Z,99089.09
2019-03-24T08:40:12.149Z,99094.97
2019-03-24T08:42:44.948Z,99085.70
2019-03-24T08:45:27.795Z,99085.31
2019-03-24T08:48:01.143Z,99077.13
2019-03-24T08:50:33.936Z,99070.73
2019-03-24T08:53:06.730Z,99069.12
2019-03-24T08:55:39.513Z,99076.09
2019-03-24T08:58:12.300Z,99083.69
2019-03-24T09:00:45.076Z,99078.22
2019-03-24T09:03:17.805Z,99074.38
2019-03-24T09:05:51.068Z,99066.48
2019-03-24T09:08:23.836Z,99055.27
2019-03-24T09:10:56.626Z,99056.61
2019-03-24T09:13:29.451Z,99041.86
2019-03-24T09:16:02.319Z,99043.59
2019-03-24T09:18:35.042Z,99043.08
2019-03-24T09:21:07.919Z,99043.44
2019-03-24T09:23:41.048Z,99034.68
2019-03-24T09:26:13.849Z,99031.43
2019-03-24T09:28:46.631Z,99021.16
2019-03-24T09:31:19.388Z,99025.00
2019-03-24T09:33:52.229Z,99020.92
2019-03-24T09:36:25.170Z,99013.23
2019-03-24T09:38:57.956Z,99015.08
2019-03-24T09:41:30.723Z,99018.81
2019-03-24T09:44:03.538Z,99011.10
2019-03-24T09:46:36.393Z,99015.95
2019-03-24T09:49:09.158Z,99015.96
2019-03-24T09:51:41.954Z,99014.48
2019-03-24T09:54:14.825Z,99003.43
2019-03-24T09:56:47.593Z,99001.54
2019-03-24T09:59:20.439Z,98999.03
2019-03-24T10:01:53.164Z,98994.20
2019-03-24T10:04:25.979Z,98992.42
2019-03-24T10:06:58.761Z,98985.05
2019-03-24T10:09:31.874Z,98986.57
2019-03-24T10:12:04.733Z,98981.88
2019-03-24T10:14:37.497Z,98982.00
2019-03-24T10:17:10.279Z,98982.11
2019-03-24T10:19:43.091Z,98982.19
2019-03-24T10:22:15.824Z,98971.34
2019-03-24T10:24:48.578Z,98970.52
2019-03-24T10:27:21.631Z,98968.88
2019-03-24T10:29:54.419Z,98972.11
2019-03-24T10:32:27.197Z,98965.69
2019-03-24T10:35:00.325Z,98950.99
2019-03-24T10:37:33.112Z,98954.52
2019-03-24T10:40:06.350Z,98955.20
2019-03-24T10:42:39.797Z,98959.39
2019-03-24T10:45:13.399Z,98953.53
2019-03-24T10:47:46.174Z,98941.71
2019-03-24T10:50:19.138Z,98939.39
2019-03-24T10:52:52.099Z,98938.02
2019-03-24T10:55:24.866Z,98930.58
2019-03-24T10:57:57.700Z,98928.58
2019-03-24T11:00:44.658Z,98926.44
2019-03-24T11:03:17.507Z,98922.72
2019-03-24T11:05:50.274Z,98917.78
2019-03-24T11:08:23.061Z,98909.03
2019-03-24T11:10:55.924Z,98903.76
2019-03-24T11:13:28.762Z,98906.34
2019-03-24T11:16:01.879Z,98901.59
2019-03-24T11:18:34.674Z,98895.87
2019-03-24T11:21:08.880Z,98887.89
2019-03-24T11:32:51.954Z,98891.84
2019-03-24T11:35:27.623Z,98888.12
2019-03-24T11:38:01.040Z,98885.34
2019-03-24T11:40:33.877Z,98880.36
2019-03-24T11:43:07.829Z,98869.91
2019-03-24T11:45:41.024Z,98869.33
2019-03-24T11:48:13.861Z,98863.27
2019-03-24T11:50:46.794Z,98852.72
2019-03-24T11:53:19.718Z,98851.49
2019-03-24T11:55:52.622Z,98840.13
2019-03-24T11:58:25.420Z,98841.87
2019-03-24T12:00:58.342Z,98833.22
2019-03-24T12:03:31.101Z,98828.50
2019-03-24T12:06:13.911Z,98824.25
2019-03-24T12:08:38.920Z,98828.62
2019-03-24T12:11:12.221Z,98823.41
2019-03-24T12:13:45.050Z,98819.89
2019-03-24T12:16:17.880Z,98813.61
2019-03-24T12:18:50.710Z,98815.47
2019-03-24T12:21:23.706Z,98817.41
2019-03-24T12:23:56.489Z,98809.89
2019-03-24T12:26:29.371Z,98807.39
2019-03-24T12:29:02.320Z,98797.80
2019-03-24T12:31:35.234Z,98803.41
2019-03-24T12:34:08.105Z,98792.69
2019-03-24T12:36:41.356Z,98787.20
2019-03-24T12:39:14.208Z,98790.38
2019-03-24T12:41:47.071Z,98782.27
2019-03-24T12:44:20.081Z,98784.32
2019-03-24T12:46:52.991Z,98778.84
2019-03-24T12:49:25.825Z,98763.62
2019-03-24T12:51:58.666Z,98760.03
2019-03-24T12:54:32.690Z,98753.13
2019-03-24T12:57:05.459Z,98748.55
2019-03-24T12:59:38.313Z,98745.30
2019-03-24T13:02:11.538Z,98738.09
2019-03-24T13:04:44.485Z,98731.47
2019-03-24T13:07:17.288Z,98725.12
2019-03-24T13:09:50.136Z,98731.08
2019-03-24T13:12:23.136Z,98721.05
2019-03-24T13:14:55.942Z,98703.44
2019-03-24T13:17:28.832Z,98709.21
2019-03-24T13:20:01.911Z,98710.22
2019-03-24T13:22:35.455Z,98707.31
2019-03-24T13:25:08.810Z,98696.92
2019-03-24T13:27:41.669Z,98698.72
2019-03-24T13:30:14.701Z,98700.39
2019-03-24T13:32:48.583Z,98705.63
2019-03-24T13:35:40.271Z,98686.89
2019-03-24T13:38:12.398Z,98688.67
2019-03-24T13:40:45.226Z,98681.41
2019-03-24T13:43:18.001Z,98677.43
2019-03-24T13:45:51.326Z,98678.79
2019-03-24T13:48:24.169Z,98674.37
2019-03-24T13:50:57.022Z,98669.77
2019-03-24T13:53:29.866Z,98668.36
2019-03-24T13:56:02.744Z,98659.63
2019-03-24T13:58:37.904Z,98656.05
2019-03-24T14:01:11.077Z,98652.01
2019-03-24T14:03:43.932Z,98647.70
2019-03-24T14:06:16.819Z,98649.48
2019-03-24T14:08:49.787Z,98653.20
2019-03-24T14:11:24.257Z,98639.39
2019-03-24T14:13:57.195Z,98635.39
2019-03-24T14:16:31.175Z,98640.23
2019-03-24T14:19:06.350Z,98627.45
2019-03-24T14:21:39.381Z,98630.15
2019-03-24T14:24:12.404Z,98626.31
2019-03-24T14:26:45.451Z,98619.19
2019-03-24T14:29:18.265Z,98616.77
2019-03-24T14:31:51.156Z,98615.48
2019-03-24T14:34:26.841Z,98612.33
2019-03-24T14:37:00.875Z,98610.23
2019-03-24T14:39:33.776Z,98604.14
2019-03-24T14:42:06.905Z,98603.56
2019-03-24T14:44:39.794Z,98594.69
2019-03-24T14:47:12.726Z,98585.44
2019-03-24T14:49:45.659Z,98589.13
2019-03-24T14:52:18.662Z,98592.06
2019-03-24T14:54:51.427Z,98583.78
2019-03-24T14:57:24.391Z,98578.83
2019-03-24T14:59:57.370Z,98585.73
2019-03-24T15:02:30.988Z,98579.53
2019-03-24T15:05:03.833Z,98575.88
2019-03-24T15:07:36.684Z,98576.23
2019-03-24T15:10:09.706Z,98583.47
2019-03-24T15:12:42.631Z,98576.92
2019-03-24T15:15:15.508Z,98577.99
2019-03-24T15:17:48.342Z,98579.45
2019-03-24T15:20:21.389Z,98581.78
2019-03-24T15:22:54.271Z,98577.53
2019-03-24T15:25:27.165Z,98581.86
2019-03-24T15:28:00.036Z,98576.70
2019-03-24T15:30:32.931Z,98570.96
2019-03-24T15:33:05.765Z,98576.50
2019-03-24T15:35:38.674Z,98568.58
2019-03-24T15:38:11.888Z,98560.92
2019-03-24T15:40:45.031Z,98563.00
2019-03-24T15:43:17.965Z,98562.41
2019-03-24T15:45:51.231Z,98554.64
2019-03-24T15:48:24.050Z,98556.41
2019-03-24T15:50:56.839Z,98555.44
2019-03-24T15:53:29.680Z,98551.30
2019-03-24T15:56:02.551Z,98548.13
2019-03-24T15:58:35.569Z,98543.34
2019-03-24T16:01:08.347Z,98546.48
2019-03-24T16:03:41.700Z,98544.06
2019-03-24T16:06:14.476Z,98539.12
2019-03-24T16:08:47.241Z,98539.47
2019-03-24T16:11:20.178Z,98530.82
2019-03-24T16:13:52.968Z,98537.58
2019-03-24T16:16:25.788Z,98530.83
2019-03-24T16:18:58.709Z,98530.87
2019-03-24T16:21:31.609Z,98522.06
2019-03-24T16:24:04.408Z,98523.33
2019-03-24T16:26:37.256Z,98521.45
2019-03-24T16:29:10.047Z,98515.06
2019-03-24T16:31:42.944Z,98517.48
2019-03-24T16:34:15.759Z,98506.86
2019-03-24T16:36:48.663Z,98506.79
2019-03-24T16:39:21.903Z,98510.70
2019-03-24T16:41:54.764Z,98509.25
2019-03-24T16:44:27.695Z,98504.16
2019-03-24T16:47:00.777Z,98507.28
2019-03-24T16:49:33.603Z,98496.65
2019-03-24T16:52:06.504Z,98506.36
2019-03-24T16:54:39.485Z,98507.78
2019-03-24T16:57:12.416Z,98504.02
2019-03-24T16:59:45.347Z,98495.64
2019-03-24T17:02:18.470Z,98493.52
2019-03-24T17:04:51.261Z,98492.45
2019-03-24T17:07:24.097Z,98487.75
2019-03-24T17:09:58.793Z,98481.78
2019-03-24T17:12:31.635Z,98482.85
2019-03-24T17:15:04.833Z,98487.94
2019-03-24T17:17:38.403Z,98484.70
2019-03-24T17:20:12.495Z,98487.43
2019-03-24T17:22:45.344Z,98487.09
2019-03-24T17:25:18.432Z,98483.46
2019-03-24T17:27:51.242Z,98485.41
2019-03-24T17:30:24.112Z,98492.13
2019-03-24T17:32:56.971Z,98497.04
2019-03-24T17:35:29.923Z,98500.78
2019-03-24T17:38:02.766Z,98491.17
2019-03-24T17:40:39.105Z,98493.95
2019-03-24T17:43:11.180Z,98493.11
2019-03-24T17:45:44.130Z,98490.98
2019-03-24T17:48:16.964Z,98484.83
2019-03-24T17:50:49.927Z,98485.03
2019-03-24T17:53:22.730Z,98482.98
2019-03-24T17:55:57.421Z,98481.84
2019-03-24T17:58:32.939Z,98483.17
2019-03-24T18:01:06.069Z,98478.75
2019-03-24T18:03:38.867Z,98476.17
2019-03-24T18:06:12.293Z,98488.44
2019-03-24T18:08:45.193Z,98489.48
2019-03-24T18:11:18.035Z,98496.56
2019-03-24T18:13:51.027Z,98496.88
2019-03-24T18:16:23.933Z,98502.47
2019-03-24T18:18:56.772Z,98496.23
2019-03-24T18:21:29.777Z,98501.71
2019-03-24T18:24:02.755Z,98505.16
2019-03-24T18:26:35.903Z,98496.88
2019-03-24T18:29:08.731Z,98495.39
2019-03-24T18:31:41.993Z,98491.17
2019-03-24T18:34:14.859Z,98482.41
2019-03-24T18:36:47.669Z,98476.61
2019-03-24T18:39:20.571Z,98478.78
2019-03-24T18:41:53.467Z,98474.94
2019-03-24T18:44:26.351Z,98467.25
2019-03-24T18:46:59.256Z,98462.95
2019-03-24T18:49:32.129Z,98467.44
2019-03-24T18:52:04.930Z,98472.79
2019-03-24T18:54:37.918Z,98472.13
2019-03-24T18:57:11.098Z,98473.91
2019-03-24T18:59:44.070Z,98474.06
2019-03-24T19:02:16.962Z,98472.00
2019-03-24T19:04:49.880Z,98469.76
2019-03-24T19:07:22.688Z,98472.25
2019-03-24T19:09:55.485Z,98466.43
2019-03-24T19:12:28.319Z,98472.38
2019-03-24T19:15:01.134Z,98481.07
2019-03-24T19:17:34.111Z,98484.45
2019-03-24T19:20:08.196Z,98476.09
2019-03-24T19:22:41.026Z,98474.36
2019-03-24T19:25:14.131Z,98475.16
2019-03-24T19:27:47.073Z,98473.44
2019-03-24T19:30:22.750Z,98469.98
2019-03-24T19:32:55.688Z,98464.23
2019-03-24T19:35:28.515Z,98461.50
2019-03-24T19:38:02.684Z,98462.38
2019-03-24T19:40:35.698Z,98453.14
2019-03-24T19:43:08.686Z,98448.04
2019-03-24T19:45:41.533Z,98444.94
2019-03-24T19:48:14.433Z,98443.21
2019-03-24T19:50:47.218Z,98442.04
2019-03-24T19:53:20.064Z,98444.29
2019-03-24T19:55:52.977Z,98431.48
2019-03-24T19:58:25.942Z,98426.58
2019-03-24T20:00:58.788Z,98426.13
2019-03-24T20:03:31.868Z,98426.13
2019-03-24T20:06:04.837Z,98424.65
2019-03-24T20:08:37.666Z,98432.60
2019-03-24T20:11:10.507Z,98436.66
2019-03-24T20:13:43.907Z,98436.73
2019-03-24T20:16:17.863Z,98427.73
2019-03-24T20:18:50.729Z,98432.35
2019-03-24T20:21:23.595Z,98426.32
2019-03-24T20:23:56.399Z,98417.19
2019-03-24T20:26:29.274Z,98419.12
2019-03-24T20:29:04.342Z,98416.95
2019-03-24T20:31:37.149Z,98419.64
2019-03-24T20:34:10.176Z,98411.17
2019-03-24T20:36:43.263Z,98402.21
2019-03-24T20:39:16.281Z,98397.23
2019-03-24T20:41:49.101Z,98391.00
2019-03-24T20:44:22.161Z,98395.78
2019-03-24T20:46:54.977Z,98387.83
2019-03-24T20:49:27.857Z,98390.48
2019-03-24T20:52:01.073Z,98384.78
2019-03-24T20:54:33.912Z,98381.92
2019-03-24T20:57:06.741Z,98371.00
2019-03-24T20:59:39.646Z,98366.62
2019-03-24T21:02:12.512Z,98359.34
2019-03-24T21:04:45.275Z,98355.89
2019-03-24T21:07:18.136Z,98353.24
2019-03-24T21:09:50.964Z,98363.84
2019-03-24T21:12:23.718Z,98377.10
2019-03-24T21:14:56.560Z,98384.16
2019-03-24T21:17:29.328Z,98386.55
2019-03-24T21:20:02.259Z,98377.06
2019-03-24T21:22:35.205Z,98371.56
2019-03-24T21:25:09.029Z,98375.40
2019-03-24T21:27:42.014Z,98369.59
2019-03-24T21:30:15.281Z,98370.52
2019-03-24T21:32:48.191Z,98371.44
2019-03-24T21:35:21.364Z,98367.06
2019-03-24T21:37:54.235Z,98352.56
2019-03-24T21:40:27.089Z,98353.41
2019-03-24T21:42:59.987Z,98348.92
2019-03-24T21:45:32.855Z,98332.63
2019-03-24T21:48:06.377Z,98344.02
2019-03-24T21:50:39.398Z,98350.65
2019-03-24T21:53:12.229Z,98347.48
2019-03-24T21:55:45.286Z,98349.33
2019-03-24T21:58:18.100Z,98339.66
2019-03-24T22:00:51.450Z,98339.33
2019-03-24T22:03:24.244Z,98338.59
2019-03-24T22:05:57.103Z,98335.83
2019-03-24T22:08:30.014Z,98327.59
2019-03-24T22:11:02.848Z,98331.06
2019-03-24T22:13:35.679Z,98334.82
2019-03-24T22:16:08.490Z,98325.75
2019-03-24T22:18:41.565Z,98322.95
2019-03-24T22:21:14.377Z,98322.73
2019-03-24T22:23:52.086Z,98321.16
2019-03-24T22:26:22.171Z,98319.35
2019-03-24T22:28:55.180Z,98331.81
2019-03-24T22:31:28.105Z,98333.65
2019-03-24T22:34:01.502Z,98332.44
2019-03-24T22:36:34.315Z,98333.83
2019-03-24T22:39:09.050Z,98326.23
2019-03-24T22:41:43.846Z,98322.58
2019-03-24T22:44:16.375Z,98318.75
2019-03-24T22:46:49.158Z,98311.00
2019-03-24T22:49:21.983Z,98310.67
2019-03-24T22:52:06.481Z,98314.78
2019-03-24T22:54:29.399Z,98303.86
2019-03-24T22:57:03.408Z,98301.15
2019-03-24T22:59:36.228Z,98301.30
2019-03-24T23:02:09.197Z,98291.63
2019-03-24T23:04:42.157Z,98291.98
2019-03-24T23:07:14.956Z,98288.76
2019-03-24T23:09:47.815Z,98283.13
2019-03-24T23:12:21.006Z,98281.21
2019-03-24T23:14:53.875Z,98271.22
2019-03-24T23:17:26.783Z,98270.41
2019-03-24T23:19:59.560Z,98267.88
2019-03-24T23:22:32.446Z,98262.66
2019-03-24T23:25:05.247Z,98259.34
2019-03-24T23:27:38.071Z,98251.34
2019-03-24T23:30:12.506Z,98252.55
2019-03-24T23:32:45.326Z,98250.83
2019-03-24T23:35:18.108Z,98249.61
2019-03-24T23:37:51.027Z,98237.92
2019-03-24T23:40:26.730Z,98240.23
2019-03-24T23:42:59.808Z,98238.84
2019-03-24T23:45:33.883Z,98227.72
2019-03-24T23:48:07.444Z,98226.22
2019-03-24T23:50:40.201Z,98213.41
2019-03-24T23:53:13.072Z,98213.41
2019-03-24T23:55:45.858Z,98224.13
2019-03-24T23:58:18.708Z,98214.50
